Time;durP1;ratioP1;P1;durP2;ratioP2;P2;SDS_P1;SDS_P2;PMS_P1;PMS_P2;Temp;Humidity;BMP_temperature;BMP_pressure;BME280_temperature;BME280_humidity;BME280_pressure;Samples;Min_cycle;Max_cycle;Signal;HPM_P1;HPM_P2
2024/04/02 00:01:46;;;;;;;2.63;2.33;;;;;;;10.68;96.15;99015.78;5051805;28;20730;-80
2024/04/02 00:04:14;;;;;;;2.70;2.00;;;;;;;10.78;96.18;99017.97;5053375;28;20321;-80
2024/04/02 00:06:40;;;;;;;2.40;2.10;;;;;;;10.83;96.41;99027.31;5053520;28;20208;-79
2024/04/02 00:09:06;;;;;;;3.50;2.70;;;;;;;10.65;95.69;99028.09;5055086;28;20214;-78
2024/04/02 00:11:32;;;;;;;2.57;2.30;;;;;;;10.76;96.28;99027.66;5057369;28;20710;-79
2024/04/02 00:13:58;;;;;;;2.03;1.93;;;;;;;10.77;97.60;99008.47;5058357;28;20220;-80
2024/04/02 00:16:26;;;;;;;2.20;2.10;;;;;;;10.84;97.58;99004.66;5058203;28;20741;-80
2024/04/02 00:18:52;;;;;;;2.83;2.63;;;;;;;10.86;97.78;98995.88;5057157;28;20221;-77
2024/04/02 00:21:20;;;;;;;2.20;2.10;;;;;;;10.87;98.00;98986.28;5057105;28;20219;-79
2024/04/02 00:23:45;;;;;;;3.47;2.63;;;;;;;10.86;97.95;98989.78;5058635;28;20198;-79
2024/04/02 00:26:12;;;;;;;3.63;3.27;;;;;;;10.87;97.82;98987.13;5057767;28;20216;-79
2024/04/02 00:28:38;;;;;;;2.67;2.47;;;;;;;10.86;98.01;98985.44;5058209;28;20211;-79
2024/04/02 00:31:06;;;;;;;3.73;2.90;;;;;;;10.85;97.28;98999.38;5057778;28;20282;-78
2024/04/02 00:33:33;;;;;;;3.13;2.77;;;;;;;10.86;96.64;99008.06;5058532;28;20230;-79
2024/04/02 00:36:02;;;;;;;2.93;2.73;;;;;;;10.88;96.37;99024.50;5058471;28;20204;-79
2024/04/02 00:38:28;;;;;;;3.17;2.87;;;;;;;10.87;95.81;99034.09;5058671;28;20216;-79
2024/04/02 00:40:54;;;;;;;2.53;2.17;;;;;;;10.89;95.61;99044.50;5065087;28;20237;-78
2024/04/02 00:43:19;;;;;;;2.17;2.07;;;;;;;10.81;95.58;99052.63;5057910;28;20261;-78
2024/04/02 00:45:46;;;;;;;3.10;2.10;;;;;;;10.84;95.80;99054.25;5057711;28;20207;-78
2024/04/02 00:48:12;;;;;;;2.33;2.03;;;;;;;10.86;95.92;99063.75;5057985;28;20204;-79
2024/04/02 00:50:39;;;;;;;2.30;2.10;;;;;;;10.86;94.85;99073.31;5057946;28;20274;-78
2024/04/02 00:53:06;;;;;;;3.63;2.37;;;;;;;10.82;94.49;99083.06;5058422;28;20205;-79
2024/04/02 00:55:32;;;;;;;2.40;2.30;;;;;;;10.77;95.49;99086.78;5057320;28;20228;-79
2024/04/02 00:57:58;;;;;;;2.23;2.03;;;;;;;10.72;95.33;99077.38;5058242;28;20201;-79
2024/04/02 01:00:24;;;;;;;2.73;2.47;;;;;;;10.73;96.41;99079.06;5049257;28;20668;-79
2024/04/02 01:02:49;;;;;;;2.20;2.10;;;;;;;10.77;96.43;99064.13;5058343;28;20210;-79
2024/04/02 01:05:16;;;;;;;2.60;2.23;;;;;;;10.80;96.13;99057.91;5058556;28;20228;-79
2024/04/02 01:07:43;;;;;;;2.60;2.27;;;;;;;10.77;96.58;99058.06;5057940;28;20274;-79
2024/04/02 01:10:10;;;;;;;3.33;2.97;;;;;;;10.72;97.09;99050.41;5057979;28;20249;-78
2024/04/02 01:12:35;;;;;;;2.60;2.40;;;;;;;10.46;97.17;99052.34;5058176;28;20256;-79
2024/04/02 01:15:01;;;;;;;2.63;2.43;;;;;;;10.56;97.73;99042.38;5058132;28;20225;-79
2024/04/02 01:17:27;;;;;;;2.33;2.13;;;;;;;10.69;97.34;99034.91;5058804;28;20207;-79
2024/04/02 01:19:53;;;;;;;2.30;2.03;;;;;;;10.75;96.95;99044.22;5057975;28;20261;-79
2024/04/02 01:22:18;;;;;;;2.37;2.27;;;;;;;10.57;97.33;99046.69;5058061;28;20205;-80
2024/04/02 01:24:53;;;;;;;2.47;2.13;;;;;;;10.65;97.58;99042.00;5058405;28;20623;-78
2024/04/02 01:27:20;;;;;;;2.20;2.00;;;;;;;10.70;97.63;99029.63;5066098;28;20689;-78
2024/04/02 01:29:46;;;;;;;2.50;2.30;;;;;;;10.49;96.98;99056.59;5068917;28;20210;-79
2024/04/02 01:32:12;;;;;;;3.17;2.60;;;;;;;10.52;96.51;99062.53;5069095;28;20204;-79
2024/04/02 01:34:38;;;;;;;3.30;2.40;;;;;;;10.42;96.70;99061.19;5071272;28;20235;-78
2024/04/02 01:37:04;;;;;;;3.47;2.43;;;;;;;10.53;96.28;99069.44;5065562;28;20236;-78
2024/04/02 01:39:30;;;;;;;5.37;2.17;;;;;;;10.66;96.81;99071.53;5059468;28;20245;-78
2024/04/02 01:41:56;;;;;;;5.20;2.70;;;;;;;10.47;96.66;99061.03;5056997;28;20245;-78
2024/04/02 01:44:23;;;;;;;3.10;2.60;;;;;;;10.41;96.21;99077.78;5057852;28;20200;-79
2024/04/02 01:46:49;;;;;;;3.20;2.60;;;;;;;10.38;95.69;99077.88;5056861;28;20236;-78
2024/04/02 01:49:15;;;;;;;3.77;2.47;;;;;;;10.48;95.81;99084.41;5057177;28;20657;-78
2024/04/02 01:51:40;;;;;;;2.60;2.40;;;;;;;10.45;94.96;99100.22;5056061;28;20221;-78
2024/04/02 01:54:06;;;;;;;4.17;3.10;;;;;;;10.32;94.24;99123.31;5056572;28;20226;-77
2024/04/02 01:56:32;;;;;;;4.77;3.77;;;;;;;10.23;94.82;99125.44;5056026;28;20248;-79
2024/04/02 01:58:58;;;;;;;3.43;2.57;;;;;;;10.32;94.99;99117.25;5055694;28;20206;-79
2024/04/02 02:01:25;;;;;;;2.50;2.40;;;;;;;10.26;95.64;99110.47;5056977;28;20229;-78
2024/04/02 02:03:51;;;;;;;2.50;2.40;;;;;;;10.43;95.24;99112.47;5056060;28;20203;-79
2024/04/02 02:06:17;;;;;;;3.50;2.80;;;;;;;10.46;94.08;99125.38;5056723;28;20357;-79
2024/04/02 02:08:43;;;;;;;4.40;3.20;;;;;;;10.28;93.98;99139.97;5056412;28;20780;-79
2024/04/02 02:11:08;;;;;;;2.50;2.30;;;;;;;10.43;93.72;99141.16;5055254;28;20222;-78
2024/04/02 02:13:35;;;;;;;5.03;2.70;;;;;;;10.42;92.86;99149.03;5056264;28;20202;-78
2024/04/02 02:16:02;;;;;;;2.83;2.33;;;;;;;10.27;92.44;99164.34;5055988;28;20216;-79
2024/04/02 02:18:31;;;;;;;5.10;2.87;;;;;;;10.11;92.73;99173.69;5056371;28;20206;-78
2024/04/02 02:20:57;;;;;;;3.13;2.50;;;;;;;10.04;93.62;99159.16;5055374;28;20230;-79
2024/04/02 02:23:24;;;;;;;3.77;2.63;;;;;;;9.99;93.81;99161.06;5056170;28;20202;-78
2024/04/02 02:25:49;;;;;;;2.30;2.17;;;;;;;9.88;94.41;99132.81;5055217;28;20294;-78
2024/04/02 02:28:16;;;;;;;3.33;2.97;;;;;;;9.85;95.09;99127.69;5055991;28;20830;-78
2024/04/02 02:30:41;;;;;;;2.87;2.57;;;;;;;9.69;95.29;99110.06;5055844;28;20234;-78
2024/04/02 02:33:08;;;;;;;3.00;2.80;;;;;;;9.74;95.42;99117.69;5055011;28;20581;-79
2024/04/02 02:35:35;;;;;;;3.60;3.03;;;;;;;9.73;95.26;99113.38;5055829;28;20226;-79
2024/04/02 02:38:01;;;;;;;3.20;3.00;;;;;;;10.00;94.46;99118.47;5055780;28;20280;-78
2024/04/02 02:40:29;;;;;;;3.10;2.83;;;;;;;10.04;93.69;99136.53;5054430;28;20732;-78
2024/04/02 02:42:55;;;;;;;4.03;2.90;;;;;;;10.11;93.33;99145.00;5055620;28;20213;-79
2024/04/02 02:45:21;;;;;;;3.70;3.30;;;;;;;9.90;93.31;99157.91;5056256;28;20596;-79
2024/04/02 02:47:47;;;;;;;4.50;3.40;;;;;;;9.74;94.15;99149.78;5055509;28;20290;-78
2024/04/02 02:50:13;;;;;;;3.37;3.10;;;;;;;9.65;94.57;99157.09;5055154;28;20232;-78
2024/04/02 02:52:40;;;;;;;3.70;2.70;;;;;;;9.74;94.24;99148.97;5055240;28;20199;-78
2024/04/02 02:55:06;;;;;;;2.70;2.50;;;;;;;9.71;94.51;99157.75;5054788;28;20256;-76
2024/04/02 02:57:32;;;;;;;3.77;3.43;;;;;;;9.53;94.06;99163.59;5055704;28;20210;-78
2024/04/02 02:59:58;;;;;;;3.30;3.00;;;;;;;9.72;94.17;99161.19;5055487;28;20206;-78
2024/04/02 03:02:24;;;;;;;3.40;2.80;;;;;;;9.96;93.32;99177.69;5054396;28;20203;-78
2024/04/02 03:04:50;;;;;;;3.27;2.97;;;;;;;9.93;92.88;99196.91;5055361;28;20252;-79
2024/04/02 03:07:16;;;;;;;2.93;2.33;;;;;;;10.03;92.64;99199.16;5055300;28;20197;-78
2024/04/02 03:09:43;;;;;;;2.27;2.10;;;;;;;9.89;91.80;99224.00;5054210;28;20236;-77
2024/04/02 03:12:10;;;;;;;2.87;2.33;;;;;;;9.88;91.41;99232.69;5045475;28;20206;-78
2024/04/02 03:14:35;;;;;;;2.30;2.10;;;;;;;9.92;91.70;99242.09;5055044;28;20253;-77
2024/04/02 03:17:02;;;;;;;2.77;2.23;;;;;;;9.89;90.99;99249.19;5054774;28;20198;-78
2024/04/02 03:19:27;;;;;;;2.17;1.97;;;;;;;9.69;91.64;99258.56;5054110;28;20212;-78
2024/04/02 03:21:54;;;;;;;3.13;2.17;;;;;;;9.80;91.96;99247.75;5054618;28;20293;-78
2024/04/02 03:24:19;;;;;;;2.23;2.03;;;;;;;9.87;91.93;99244.03;5054728;28;20248;-79
2024/04/02 03:26:48;;;;;;;2.23;2.00;;;;;;;9.90;91.91;99241.31;5054574;28;20205;-78
2024/04/02 03:29:13;;;;;;;3.47;2.20;;;;;;;9.86;91.79;99249.31;5054781;28;20259;-79
2024/04/02 03:31:40;;;;;;;2.20;2.00;;;;;;;9.73;92.23;99251.47;5054880;28;20223;-78
2024/04/02 03:34:05;;;;;;;3.20;2.90;;;;;;;9.53;92.89;99246.94;5054311;28;20206;-78
2024/04/02 03:36:32;;;;;;;2.63;2.43;;;;;;;9.62;92.92;99232.78;5053861;28;20254;-77
2024/04/02 03:38:58;;;;;;;2.70;2.50;;;;;;;9.36;93.92;99220.66;5053818;28;20620;-77
2024/04/02 03:41:25;;;;;;;3.47;2.93;;;;;;;9.47;94.07;99206.31;5053380;28;20229;-78
2024/04/02 03:43:53;;;;;;;2.33;2.13;;;;;;;9.51;94.37;99200.13;5054291;28;20211;-78
2024/04/02 03:46:19;;;;;;;2.73;2.53;;;;;;;9.62;94.74;99180.66;5060665;28;20203;-79
2024/04/02 03:48:48;;;;;;;3.97;3.63;;;;;;;9.44;94.51;99192.59;5060976;28;20270;-77
2024/04/02 03:51:15;;;;;;;4.23;3.93;;;;;;;9.43;94.68;99189.09;5060964;28;20246;-78
2024/04/02 03:53:41;;;;;;;4.67;4.33;;;;;;;9.52;94.52;99186.19;5060449;28;20206;-77
2024/04/02 03:56:07;;;;;;;3.87;3.50;;;;;;;9.65;94.88;99183.16;5059587;28;20683;-78
2024/04/02 03:58:33;;;;;;;4.27;3.97;;;;;;;9.77;94.57;99184.47;5061243;28;20203;-78
2024/04/02 04:01:00;;;;;;;6.80;6.30;;;;;;;9.63;93.98;99193.66;5060498;28;20229;-79
2024/04/02 04:03:27;;;;;;;7.27;5.57;;;;;;;9.58;94.58;99199.91;5059873;28;20199;-78
2024/04/02 04:05:58;;;;;;;5.73;5.33;;;;;;;9.58;94.87;99182.53;5059763;28;20198;-77
2024/04/02 04:08:24;;;;;;;6.57;5.97;;;;;;;9.78;94.37;99187.03;5060333;28;20288;-78
2024/04/02 04:10:50;;;;;;;6.97;6.47;;;;;;;9.84;93.40;99207.66;5058856;28;20317;-78
2024/04/02 04:13:16;;;;;;;6.23;5.67;;;;;;;9.64;93.64;99212.72;5060091;28;20262;-78
2024/04/02 04:15:42;;;;;;;6.37;5.43;;;;;;;9.89;93.17;99215.28;5059967;28;20246;-79
2024/04/02 04:18:09;;;;;;;6.67;5.73;;;;;;;9.98;92.85;99222.78;5061283;28;20213;-79
2024/04/02 04:20:35;;;;;;;5.60;5.10;;;;;;;9.70;93.95;99222.94;5060881;28;20229;-78
2024/04/02 04:23:01;;;;;;;5.80;5.40;;;;;;;9.63;94.69;99213.63;5062238;28;20214;-78
2024/04/02 04:25:27;;;;;;;5.50;5.00;;;;;;;9.73;94.77;99196.75;5060421;28;20204;-78
2024/04/02 04:27:52;;;;;;;5.00;4.60;;;;;;;9.78;93.31;99207.88;5061496;28;20256;-79
2024/04/02 04:30:21;;;;;;;4.50;4.20;;;;;;;9.83;93.40;99213.78;5060317;28;20218;-77
2024/04/02 04:32:46;;;;;;;4.37;3.97;;;;;;;9.87;93.29;99228.41;5060280;28;20206;-78
2024/04/02 04:35:14;;;;;;;3.70;3.40;;;;;;;9.92;92.88;99241.25;5061074;28;20958;-78
2024/04/02 04:37:39;;;;;;;4.07;3.50;;;;;;;9.79;92.73;99253.03;5060856;28;20209;-77
2024/04/02 04:40:07;;;;;;;4.10;3.80;;;;;;;9.99;92.49;99265.34;5060213;28;20236;-79
2024/04/02 04:42:32;;;;;;;3.60;3.33;;;;;;;10.09;91.79;99264.97;5061016;28;20257;-78
2024/04/02 04:44:59;;;;;;;3.13;2.90;;;;;;;9.94;91.79;99281.16;5061205;28;20207;-79
2024/04/02 04:47:24;;;;;;;3.40;3.10;;;;;;;10.09;91.71;99279.78;5061022;28;20202;-77
2024/04/02 04:49:51;;;;;;;2.70;2.50;;;;;;;10.07;91.30;99302.47;5060417;28;20248;-78
2024/04/02 04:52:18;;;;;;;3.10;2.90;;;;;;;9.97;90.93;99325.38;5060357;28;20229;-79
2024/04/02 04:54:44;;;;;;;2.97;2.77;;;;;;;9.92;91.44;99307.28;5060246;28;20282;-78
2024/04/02 04:57:10;;;;;;;3.20;3.00;;;;;;;10.10;90.95;99321.44;5056712;28;20218;-79
2024/04/02 04:59:35;;;;;;;5.27;3.50;;;;;;;10.11;90.81;99325.75;5057045;28;20202;-78
2024/04/02 05:02:02;;;;;;;3.70;3.40;;;;;;;10.13;89.99;99342.19;5056166;28;20224;-77
2024/04/02 05:04:27;;;;;;;4.43;3.93;;;;;;;9.88;89.72;99355.19;5057190;28;20206;-78
2024/04/02 05:06:54;;;;;;;4.53;4.20;;;;;;;10.10;89.53;99359.69;5056755;28;20216;-78
2024/04/02 05:09:21;;;;;;;4.83;4.43;;;;;;;10.22;88.96;99369.69;5056768;28;20208;-79
2024/04/02 05:11:47;;;;;;;4.83;4.43;;;;;;;9.99;89.87;99383.53;5058082;28;20229;-79
2024/04/02 05:14:12;;;;;;;4.90;4.60;;;;;;;9.94;88.90;99394.09;5058632;28;20203;-78
2024/04/02 05:16:39;;;;;;;6.10;5.70;;;;;;;10.07;89.15;99394.56;5055833;28;20658;-79
2024/04/02 05:19:04;;;;;;;5.40;4.90;;;;;;;10.03;90.02;99389.47;5059683;28;20209;-79
2024/04/02 05:21:31;;;;;;;5.50;5.10;;;;;;;9.86;90.32;99377.88;5059204;28;20228;-79
2024/04/02 05:23:56;;;;;;;5.30;4.90;;;;;;;10.06;89.79;99381.56;5059661;28;20200;-79
2024/04/02 05:26:24;;;;;;;5.07;4.77;;;;;;;9.96;90.13;99388.84;5058359;28;20201;-79
2024/04/02 05:28:49;;;;;;;6.20;5.60;;;;;;;9.94;89.55;99396.69;5059126;28;20216;-80
2024/04/02 05:31:16;;;;;;;5.33;5.03;;;;;;;10.08;90.12;99392.78;5058203;28;20225;-79
2024/04/02 05:33:42;;;;;;;5.40;5.00;;;;;;;10.06;89.93;99403.25;5058477;28;20253;-79
2024/04/02 05:36:09;;;;;;;5.57;5.10;;;;;;;10.06;90.39;99389.38;5058733;28;20231;-79
2024/04/02 05:38:34;;;;;;;4.57;4.23;;;;;;;10.17;90.99;99387.28;5058042;28;20282;-79
2024/04/02 05:41:00;;;;;;;4.73;4.33;;;;;;;10.32;89.83;99391.13;5058297;28;20252;-80
2024/04/02 05:43:27;;;;;;;5.17;4.87;;;;;;;10.01;89.50;99410.41;5058233;28;20199;-79
2024/04/02 05:45:54;;;;;;;5.10;4.70;;;;;;;10.23;89.72;99410.53;5058081;28;20214;-79
2024/04/02 05:48:19;;;;;;;5.33;4.90;;;;;;;10.33;88.80;99424.16;5059302;28;20205;-79
2024/04/02 05:50:53;;;;;;;5.13;4.70;;;;;;;10.25;89.17;99440.03;5057775;28;20642;-80
2024/04/02 05:53:18;;;;;;;5.53;4.60;;;;;;;10.30;88.23;99448.56;5057986;28;20206;-80
2024/04/02 05:55:45;;;;;;;5.10;4.70;;;;;;;10.38;88.34;99452.69;5057957;28;20645;-79
2024/04/02 05:58:10;;;;;;;4.63;4.30;;;;;;;10.34;87.98;99465.81;5057790;28;20252;-79
2024/04/02 06:00:38;;;;;;;4.17;3.87;;;;;;;10.52;88.40;99456.53;5057728;28;20235;-77
2024/04/02 06:03:03;;;;;;;4.73;4.23;;;;;;;10.47;87.36;99476.69;5054432;28;20223;-78
2024/04/02 06:05:30;;;;;;;5.13;3.73;;;;;;;10.21;88.58;99485.38;5052977;28;20259;-77
2024/04/02 06:07:57;;;;;;;3.67;3.33;;;;;;;10.51;88.26;99469.63;5053581;28;20210;-78
2024/04/02 06:10:23;;;;;;;3.93;3.60;;;;;;;10.53;87.13;99488.69;5054733;28;20280;-79
2024/04/02 06:12:50;;;;;;;3.83;3.50;;;;;;;10.59;86.83;99493.69;5057364;28;20741;-77
2024/04/02 06:15:15;;;;;;;4.13;3.43;;;;;;;10.62;88.04;99487.50;5056939;28;20231;-79
2024/04/02 06:17:43;;;;;;;3.10;2.90;;;;;;;10.46;88.15;99495.00;5056784;28;20625;-79
2024/04/02 06:20:09;;;;;;;3.10;2.80;;;;;;;10.51;87.86;99487.88;5056500;28;20226;-79
2024/04/02 06:22:37;;;;;;;2.90;2.70;;;;;;;10.46;88.19;99476.75;5056369;28;20262;-79
2024/04/02 06:25:02;;;;;;;3.83;2.80;;;;;;;10.48;88.45;99467.94;5056485;28;20245;-77
2024/04/02 06:27:28;;;;;;;2.63;2.43;;;;;;;10.55;88.05;99466.00;5056746;28;20235;-79
2024/04/02 06:29:54;;;;;;;4.07;2.40;;;;;;;10.36;87.23;99485.78;5056895;28;20822;-79
2024/04/02 06:32:21;;;;;;;3.07;2.60;;;;;;;10.41;87.50;99487.34;5056503;28;20208;-79
2024/04/02 06:34:47;;;;;;;3.20;2.60;;;;;;;10.52;87.45;99494.78;5054989;28;20719;-79
2024/04/02 06:37:14;;;;;;;3.10;2.87;;;;;;;10.59;87.10;99504.13;5056437;28;20238;-79
2024/04/02 06:39:39;;;;;;;4.90;2.80;;;;;;;10.52;87.09;99505.22;5056089;28;20215;-79
2024/04/02 06:42:05;;;;;;;2.97;2.67;;;;;;;10.75;87.11;99503.59;5054915;28;20687;-78
2024/04/02 06:44:31;;;;;;;3.77;2.60;;;;;;;10.57;86.57;99521.59;5051643;28;20263;-78
2024/04/02 06:46:57;;;;;;;3.33;2.70;;;;;;;10.72;86.70;99515.88;5055662;28;20213;-79
2024/04/02 06:49:22;;;;;;;2.80;2.53;;;;;;;10.77;86.06;99523.53;5055024;28;20616;-79
2024/04/02 06:51:50;;;;;;;3.30;3.10;;;;;;;10.56;85.06;99545.13;5054769;28;20292;-79
2024/04/02 06:54:16;;;;;;;3.30;3.10;;;;;;;10.55;85.05;99559.94;5054145;28;20214;-79
2024/04/02 06:56:42;;;;;;;3.40;3.10;;;;;;;10.60;85.27;99552.78;5053334;28;20222;-78
2024/04/02 06:59:07;;;;;;;6.03;4.37;;;;;;;10.42;85.18;99558.63;5053841;28;20210;-79
2024/04/02 07:01:34;;;;;;;4.60;4.20;;;;;;;10.49;84.42;99568.81;5053781;28;20771;-79
2024/04/02 07:03:59;;;;;;;4.77;4.37;;;;;;;10.65;85.18;99561.34;5054398;28;20234;-79
2024/04/02 07:06:27;;;;;;;4.43;4.13;;;;;;;10.63;85.02;99572.75;5045839;28;20204;-78
2024/04/02 07:08:54;;;;;;;4.73;4.33;;;;;;;10.62;84.89;99591.91;5054911;28;20258;-78
2024/04/02 07:11:20;;;;;;;4.40;4.10;;;;;;;10.81;85.90;99553.84;5053120;28;20258;-78
2024/04/02 07:13:45;;;;;;;4.80;4.47;;;;;;;10.67;85.42;99569.97;5054576;28;20262;-79
2024/04/02 07:16:12;;;;;;;4.33;4.03;;;;;;;10.59;85.27;99577.19;5055056;28;20633;-79
2024/04/02 07:18:37;;;;;;;4.10;3.70;;;;;;;10.65;83.99;99594.41;5056018;28;20671;-80
2024/04/02 07:21:05;;;;;;;4.20;3.80;;;;;;;10.92;84.90;99590.00;5055811;28;20233;-79
2024/04/02 07:23:31;;;;;;;4.13;3.73;;;;;;;10.70;84.33;99590.75;5056422;28;20205;-79
2024/04/02 07:25:58;;;;;;;4.20;3.77;;;;;;;10.86;83.92;99611.97;5054528;28;20203;-79
2024/04/02 07:28:25;;;;;;;4.17;3.70;;;;;;;10.79;84.62;99626.13;5055826;28;20207;-80
2024/04/02 07:30:51;;;;;;;4.93;4.13;;;;;;;10.83;84.38;99608.63;5054992;28;20232;-77
2024/04/02 07:33:17;;;;;;;4.60;3.80;;;;;;;10.85;84.20;99607.66;5054906;28;20262;-79
2024/04/02 07:35:44;;;;;;;3.93;3.53;;;;;;;11.00;84.79;99601.06;5054120;28;20229;-79
2024/04/02 07:38:09;;;;;;;3.80;3.50;;;;;;;11.09;84.78;99582.44;5053270;28;20207;-79
2024/04/02 07:40:36;;;;;;;4.07;3.67;;;;;;;11.21;85.50;99570.72;5054561;28;20266;-80
2024/04/02 07:43:05;;;;;;;3.90;3.60;;;;;;;11.28;84.93;99580.06;5055068;28;20586;-78
2024/04/02 07:45:32;;;;;;;3.77;3.27;;;;;;;11.09;83.75;99605.13;5056157;28;20290;-79
2024/04/02 07:47:57;;;;;;;3.90;3.60;;;;;;;11.29;84.12;99615.72;5055994;28;20629;-80
2024/04/02 07:50:24;;;;;;;4.90;3.80;;;;;;;11.33;84.18;99606.84;5055634;28;20232;-79
2024/04/02 07:52:50;;;;;;;4.03;3.57;;;;;;;11.43;84.57;99596.94;5057334;28;20270;-79
2024/04/02 07:55:16;;;;;;;4.43;4.03;;;;;;;11.47;83.75;99613.34;5055438;28;20228;-79
2024/04/02 07:57:42;;;;;;;3.27;3.07;;;;;;;11.50;83.51;99636.78;5056257;28;20212;-79
2024/04/02 08:00:10;;;;;;;6.90;3.87;;;;;;;11.61;82.88;99636.38;5056068;28;20765;-79
2024/04/02 08:02:37;;;;;;;5.00;3.83;;;;;;;11.75;84.20;99639.34;5055670;28;20208;-79
2024/04/02 08:05:03;;;;;;;3.67;3.37;;;;;;;11.46;82.60;99667.38;5056029;28;20262;-79
2024/04/02 08:07:29;;;;;;;18.13;4.03;;;;;;;11.52;82.74;99674.16;5057797;28;20209;-79
2024/04/02 08:09:54;;;;;;;3.97;3.60;;;;;;;11.60;82.28;99677.38;5058893;28;20285;-79
2024/04/02 08:12:21;;;;;;;3.93;3.63;;;;;;;11.49;82.46;99688.19;5066807;28;20206;-79
2024/04/02 08:14:46;;;;;;;4.10;3.70;;;;;;;11.59;83.13;99678.25;5058568;28;20203;-78
2024/04/02 08:17:15;;;;;;;4.67;4.30;;;;;;;11.75;83.34;99660.25;5054363;28;20276;-78
2024/04/02 08:19:41;;;;;;;4.20;3.90;;;;;;;11.33;82.61;99680.00;5054756;28;20670;-78
2024/04/02 08:22:07;;;;;;;5.07;4.47;;;;;;;11.43;83.52;99672.72;5053937;28;20722;-79
2024/04/02 08:24:33;;;;;;;4.30;3.97;;;;;;;11.44;84.29;99656.13;5054279;28;20213;-78
2024/04/02 08:26:59;;;;;;;5.03;4.67;;;;;;;11.69;83.50;99650.03;5055225;28;20208;-80
2024/04/02 08:29:24;;;;;;;4.60;4.20;;;;;;;11.66;82.85;99663.22;5055692;28;20756;-78
2024/04/02 08:31:51;;;;;;;4.80;4.23;;;;;;;11.64;82.09;99671.13;5057909;28;20226;-79
2024/04/02 08:34:17;;;;;;;4.53;4.13;;;;;;;11.80;82.49;99687.09;5059067;28;20211;-78
2024/04/02 08:36:44;;;;;;;5.27;4.87;;;;;;;11.74;81.47;99692.56;5057738;28;20229;-79
2024/04/02 08:39:09;;;;;;;5.00;4.60;;;;;;;11.38;80.83;99736.47;5056998;28;20219;-77
2024/04/02 08:41:38;;;;;;;6.00;5.50;;;;;;;11.70;81.92;99717.09;5055161;28;20738;-78
2024/04/02 08:44:04;;;;;;;5.37;4.97;;;;;;;11.62;83.41;99686.00;5058237;28;20671;-78
2024/04/02 08:46:31;;;;;;;4.93;4.43;;;;;;;11.50;81.33;99718.66;5057424;28;20300;-79
2024/04/02 08:48:57;;;;;;;5.43;4.63;;;;;;;11.37;82.09;99733.03;5058090;28;20218;-79
2024/04/02 08:51:27;;;;;;;5.10;4.70;;;;;;;11.58;82.78;99713.16;4357753;28;10000755;-79
2024/04/02 08:53:52;;;;;;;5.37;4.87;;;;;;;11.43;83.27;99713.69;5054975;28;20311;-79
2024/04/02 08:56:19;;;;;;;5.37;4.97;;;;;;;11.56;81.83;99696.69;5054725;28;20354;-79
2024/04/02 08:58:46;;;;;;;5.60;5.10;;;;;;;11.58;81.23;99721.00;5055893;28;20203;-79
2024/04/02 09:01:13;;;;;;;5.80;5.30;;;;;;;11.57;80.63;99741.97;5054773;28;20879;-78
2024/04/02 09:03:38;;;;;;;5.17;4.67;;;;;;;11.67;80.75;99754.69;5052841;28;20207;-78
2024/04/02 09:06:05;;;;;;;6.60;5.10;;;;;;;11.61;80.48;99767.94;5053704;28;20265;-78
2024/04/02 09:08:42;;;;;;;5.30;4.80;;;;;;;11.62;80.68;99761.81;5053976;28;20253;-78
2024/04/02 09:11:08;;;;;;;6.03;5.30;;;;;;;11.67;80.79;99775.59;5053407;28;20307;-81
2024/04/02 09:13:34;;;;;;;5.77;5.27;;;;;;;11.84;81.79;99761.91;5054792;28;20206;-77
2024/04/02 09:16:00;;;;;;;4.60;4.20;;;;;;;11.59;81.18;99769.75;5055637;28;20231;-80
2024/04/02 09:18:30;;;;;;;4.83;4.03;;;;;;;11.73;81.17;99758.81;5054777;28;20819;-80
2024/04/02 09:20:56;;;;;;;4.17;3.87;;;;;;;11.73;79.33;99787.56;5054379;28;20223;-81
2024/04/02 09:23:22;;;;;;;4.37;4.07;;;;;;;11.66;81.90;99779.09;5054918;28;20264;-79
2024/04/02 09:25:51;;;;;;;4.27;3.90;;;;;;;11.97;82.02;99741.47;5050740;28;20205;-77
2024/04/02 09:28:16;;;;;;;4.03;3.43;;;;;;;11.96;79.92;99765.03;5054412;28;20243;-80
2024/04/02 09:30:43;;;;;;;4.20;3.90;;;;;;;12.04;78.72;99810.09;5055268;28;20224;-78
2024/04/02 09:33:10;;;;;;;3.50;3.20;;;;;;;12.07;78.87;99830.91;5055371;28;20359;-80
2024/04/02 09:35:54;;;;;;;5.20;4.07;;;;;;;12.19;78.01;99835.72;5054531;28;20230;-79
2024/04/02 09:38:21;;;;;;;3.77;3.47;;;;;;;11.90;78.31;99866.34;5054578;28;20279;-80
2024/04/02 09:40:48;;;;;;;3.77;3.47;;;;;;;11.94;76.60;99877.56;5054109;28;20233;-80
2024/04/02 09:43:18;;;;;;;4.30;4.00;;;;;;;11.59;79.87;99878.69;5061830;28;20203;-80
2024/04/02 09:45:46;;;;;;;3.77;3.57;;;;;;;11.61;79.20;99869.88;5052246;28;20205;-80
2024/04/02 09:48:14;;;;;;;5.27;4.07;;;;;;;11.67;79.17;99853.13;5052502;28;20292;-77
2024/04/02 09:50:42;;;;;;;4.20;3.37;;;;;;;12.02;79.90;99832.84;5045105;28;20232;-82
2024/04/02 09:53:10;;;;;;;3.60;3.40;;;;;;;11.97;77.71;99864.41;5054493;28;20217;-80
2024/04/02 09:55:36;;;;;;;4.17;3.77;;;;;;;11.93;77.28;99896.75;5054281;28;20233;-81
2024/04/02 09:58:02;;;;;;;4.30;3.90;;;;;;;11.87;78.74;99886.47;5055088;28;20216;-80
2024/04/02 10:00:32;;;;;;;3.90;3.63;;;;;;;11.86;79.07;99884.78;5052158;28;20235;-79
2024/04/02 10:03:00;;;;;;;4.27;3.83;;;;;;;12.05;79.70;99862.38;5054392;28;20269;-80
2024/04/02 10:05:27;;;;;;;6.03;4.33;;;;;;;11.98;79.23;99858.25;5053705;28;20270;-79
2024/04/02 10:07:54;;;;;;;4.50;4.20;;;;;;;11.70;78.81;99872.19;5052806;28;20208;-80
2024/04/02 10:10:28;;;;;;;4.90;4.40;;;;;;;11.76;79.12;99865.91;5053153;28;20259;-81
2024/04/02 10:12:55;;;;;;;4.70;4.30;;;;;;;11.67;79.27;99872.31;5054529;28;20234;-81
2024/04/02 10:15:21;;;;;;;4.23;3.93;;;;;;;11.76;79.18;99860.69;5054549;28;20239;-80
2024/04/02 10:17:56;;;;;;;3.47;3.17;;;;;;;11.52;78.91;99870.19;5053451;28;20301;-80
2024/04/02 10:20:24;;;;;;;3.17;2.83;;;;;;;11.75;77.38;99872.03;5053857;28;20288;-80
2024/04/02 10:22:52;;;;;;;3.97;3.33;;;;;;;11.83;77.81;99892.72;5052913;28;20254;-81
2024/04/02 10:25:18;;;;;;;3.73;3.40;;;;;;;11.55;78.24;99897.97;5053341;28;20211;-82
2024/04/02 10:27:44;;;;;;;4.23;3.77;;;;;;;11.79;79.66;99872.81;5055257;28;20238;-80
2024/04/02 10:30:17;;;;;;;4.93;4.43;;;;;;;11.76;80.51;99849.38;5054823;28;20238;-81
2024/04/02 10:32:44;;;;;;;4.43;4.03;;;;;;;11.65;78.45;99855.78;5052754;28;20210;-80
2024/04/02 10:35:18;;;;;;;4.73;4.33;;;;;;;11.90;78.10;99884.66;5053230;28;20892;-79
2024/04/02 10:37:45;;;;;;;4.60;4.20;;;;;;;11.59;76.84;99928.34;5046354;28;20220;-79
2024/04/02 10:40:11;;;;;;;5.63;5.13;;;;;;;11.94;79.12;99902.88;5052595;28;20239;-82
2024/04/02 10:42:37;;;;;;;5.53;5.10;;;;;;;11.94;79.11;99864.47;5053450;28;20209;-80
2024/04/02 10:45:05;;;;;;;6.63;5.90;;;;;;;12.20;78.41;99878.44;5052744;28;20235;-81
2024/04/02 10:47:31;;;;;;;6.30;5.70;;;;;;;12.27;78.89;99886.03;5052588;28;20212;-80
2024/04/02 10:49:57;;;;;;;6.10;5.60;;;;;;;12.24;77.17;99901.81;5052429;28;20255;-79
2024/04/02 10:52:24;;;;;;;8.23;7.27;;;;;;;12.23;76.57;99926.28;5052210;28;20217;-80
2024/04/02 10:54:50;;;;;;;6.87;6.37;;;;;;;11.95;76.65;99947.25;5054174;28;20223;-81
2024/04/02 10:57:16;;;;;;;6.87;6.10;;;;;;;12.08;78.00;99922.41;5053359;28;20231;-81
2024/04/02 10:59:44;;;;;;;6.27;5.67;;;;;;;12.27;77.87;99933.13;5053354;28;20391;-80
2024/04/02 11:02:17;;;;;;;6.30;5.80;;;;;;;12.42;77.01;99936.13;5047284;28;20243;-80
2024/04/02 11:04:43;;;;;;;8.37;4.53;;;;;;;12.11;75.29;99939.78;5052632;28;20204;-81
2024/04/02 11:07:10;;;;;;;6.10;5.60;;;;;;;12.23;76.23;99969.91;5053210;28;20213;-80
2024/04/02 11:09:37;;;;;;;5.23;4.77;;;;;;;12.32;75.95;99964.38;5053952;28;20213;-82
2024/04/02 11:12:05;;;;;;;8.00;5.00;;;;;;;12.42;77.26;99939.56;5053005;28;20230;-81
2024/04/02 11:14:31;;;;;;;4.33;3.73;;;;;;;12.47;76.58;99949.91;5054354;28;20211;-80
2024/04/02 11:16:57;;;;;;;4.07;3.60;;;;;;;12.42;74.59;99957.06;5052791;28;20232;-80
2024/04/02 11:19:23;;;;;;;6.87;3.63;;;;;;;12.61;72.42;100005.25;5053229;28;20916;-77
2024/04/02 11:24:57;;;;;;;4.27;3.87;;;;;;;12.94;72.66;100031.16;5052460;28;20231;-80
2024/04/02 11:27:23;;;;;;;5.20;4.03;;;;;;;12.93;72.06;100099.38;5052296;28;20230;-77
2024/04/02 11:29:50;;;;;;;4.30;3.83;;;;;;;12.77;72.65;100099.88;5052739;28;20941;-80
2024/04/02 11:32:16;;;;;;;4.27;3.57;;;;;;;12.75;72.01;100091.22;5052743;28;20205;-81
2024/04/02 11:34:42;;;;;;;4.10;3.70;;;;;;;12.88;73.24;100083.78;5052268;28;20270;-81